sensor_id;sensor_type;location;lat;lon;timestamp;P1;durP1;ratioP1;P2;durP2;ratioP2
54937;SDS011;52756;52.826;6.214;2023-03-23T00:01:14;10.50;;;7.80;;
54937;SDS011;52756;52.826;6.214;2023-03-23T00:03:45;14.00;;;7.50;;
54937;SDS011;52756;52.826;6.214;2023-03-23T00:06:12;10.00;;;6.43;;
54937;SDS011;52756;52.826;6.214;2023-03-23T00:08:42;11.55;;;7.25;;
54937;SDS011;52756;52.826;6.214;2023-03-23T00:11:16;10.55;;;7.03;;
54937;SDS011;52756;52.826;6.214;2023-03-23T00:13:47;11.13;;;7.38;;
54937;SDS011;52756;52.826;6.214;2023-03-23T00:16:21;9.73;;;6.80;;
54937;SDS011;52756;52.826;6.214;2023-03-23T00:18:54;9.50;;;6.78;;
54937;SDS011;52756;52.826;6.214;2023-03-23T00:21:21;11.70;;;6.82;;
54937;SDS011;52756;52.826;6.214;2023-03-23T00:26:31;8.52;;;6.40;;
54937;SDS011;52756;52.826;6.214;2023-03-23T00:28:59;7.80;;;6.18;;
54937;SDS011;52756;52.826;6.214;2023-03-23T00:31:25;10.38;;;5.97;;
54937;SDS011;52756;52.826;6.214;2023-03-23T00:33:56;12.50;;;5.70;;
54937;SDS011;52756;52.826;6.214;2023-03-23T00:36:23;9.23;;;6.55;;
54937;SDS011;52756;52.826;6.214;2023-03-23T00:38:49;10.15;;;6.07;;
54937;SDS011;52756;52.826;6.214;2023-03-23T00:41:15;8.32;;;5.20;;
54937;SDS011;52756;52.826;6.214;2023-03-23T00:43:40;9.32;;;5.07;;
54937;SDS011;52756;52.826;6.214;2023-03-23T00:46:06;11.07;;;5.70;;
54937;SDS011;52756;52.826;6.214;2023-03-23T00:48:36;9.13;;;5.18;;
54937;SDS011;52756;52.826;6.214;2023-03-23T00:51:10;9.52;;;5.03;;
54937;SDS011;52756;52.826;6.214;2023-03-23T00:53:36;9.15;;;5.05;;
54937;SDS011;52756;52.826;6.214;2023-03-23T00:56:05;7.88;;;4.80;;
54937;SDS011;52756;52.826;6.214;2023-03-23T00:58:33;6.63;;;4.85;;
54937;SDS011;52756;52.826;6.214;2023-03-23T01:00:58;8.43;;;5.30;;
54937;SDS011;52756;52.826;6.214;2023-03-23T01:03:24;7.78;;;5.00;;
54937;SDS011;52756;52.826;6.214;2023-03-23T01:05:51;7.18;;;4.95;;
54937;SDS011;52756;52.826;6.214;2023-03-23T01:08:17;7.70;;;5.07;;
54937;SDS011;52756;52.826;6.214;2023-03-23T01:10:44;9.40;;;5.40;;
54937;SDS011;52756;52.826;6.214;2023-03-23T01:13:10;7.80;;;5.30;;
54937;SDS011;52756;52.826;6.214;2023-03-23T01:15:37;8.02;;;4.93;;
54937;SDS011;52756;52.826;6.214;2023-03-23T01:18:03;9.18;;;5.25;;
54937;SDS011;52756;52.826;6.214;2023-03-23T01:20:29;7.10;;;4.50;;
54937;SDS011;52756;52.826;6.214;2023-03-23T01:22:56;6.95;;;4.43;;
54937;SDS011;52756;52.826;6.214;2023-03-23T01:25:27;8.38;;;4.60;;
54937;SDS011;52756;52.826;6.214;2023-03-23T01:27:55;11.07;;;4.85;;
54937;SDS011;52756;52.826;6.214;2023-03-23T01:30:21;7.53;;;4.60;;
54937;SDS011;52756;52.826;6.214;2023-03-23T01:32:47;7.25;;;4.28;;
54937;SDS011;52756;52.826;6.214;2023-03-23T01:35:13;8.23;;;4.47;;
54937;SDS011;52756;52.826;6.214;2023-03-23T01:37:39;6.07;;;4.18;;
54937;SDS011;52756;52.826;6.214;2023-03-23T01:40:05;8.35;;;4.20;;
54937;SDS011;52756;52.826;6.214;2023-03-23T01:42:32;10.05;;;5.00;;
54937;SDS011;52756;52.826;6.214;2023-03-23T01:47:45;6.55;;;4.85;;
54937;SDS011;52756;52.826;6.214;2023-03-23T01:50:17;6.25;;;4.32;;
54937;SDS011;52756;52.826;6.214;2023-03-23T01:52:48;9.68;;;4.55;;
54937;SDS011;52756;52.826;6.214;2023-03-23T01:55:16;8.77;;;4.88;;
54937;SDS011;52756;52.826;6.214;2023-03-23T01:57:42;8.23;;;4.35;;
54937;SDS011;52756;52.826;6.214;2023-03-23T02:00:08;7.35;;;4.13;;
54937;SDS011;52756;52.826;6.214;2023-03-23T02:02:44;6.43;;;4.50;;
54937;SDS011;52756;52.826;6.214;2023-03-23T02:08:08;9.57;;;4.40;;
54937;SDS011;52756;52.826;6.214;2023-03-23T02:10:36;7.68;;;3.90;;
54937;SDS011;52756;52.826;6.214;2023-03-23T02:13:03;9.48;;;4.70;;
54937;SDS011;52756;52.826;6.214;2023-03-23T02:15:34;10.18;;;4.75;;
54937;SDS011;52756;52.826;6.214;2023-03-23T02:24:06;8.35;;;4.03;;
54937;SDS011;52756;52.826;6.214;2023-03-23T02:29:29;6.80;;;3.45;;
54937;SDS011;52756;52.826;6.214;2023-03-23T02:32:10;5.85;;;3.40;;
54937;SDS011;52756;52.826;6.214;2023-03-23T02:40:42;7.43;;;4.03;;
54937;SDS011;52756;52.826;6.214;2023-03-23T02:43:13;5.40;;;2.92;;
54937;SDS011;52756;52.826;6.214;2023-03-23T02:45:44;5.30;;;3.15;;
54937;SDS011;52756;52.826;6.214;2023-03-23T02:48:10;5.97;;;3.28;;
54937;SDS011;52756;52.826;6.214;2023-03-23T02:50:40;6.10;;;3.15;;
54937;SDS011;52756;52.826;6.214;2023-03-23T02:53:09;6.05;;;3.70;;
54937;SDS011;52756;52.826;6.214;2023-03-23T02:55:38;5.35;;;2.90;;
54937;SDS011;52756;52.826;6.214;2023-03-23T02:58:07;6.32;;;3.35;;
54937;SDS011;52756;52.826;6.214;2023-03-23T03:00:33;5.05;;;2.78;;
54937;SDS011;52756;52.826;6.214;2023-03-23T03:03:00;5.22;;;2.88;;
54937;SDS011;52756;52.826;6.214;2023-03-23T03:08:18;5.45;;;3.08;;
54937;SDS011;52756;52.826;6.214;2023-03-23T03:21:41;4.45;;;2.83;;
54937;SDS011;52756;52.826;6.214;2023-03-23T03:24:10;5.97;;;2.60;;
54937;SDS011;52756;52.826;6.214;2023-03-23T03:26:39;6.45;;;2.80;;
54937;SDS011;52756;52.826;6.214;2023-03-23T03:29:10;5.93;;;3.50;;
54937;SDS011;52756;52.826;6.214;2023-03-23T03:31:37;5.97;;;3.28;;
54937;SDS011;52756;52.826;6.214;2023-03-23T03:34:05;4.93;;;2.70;;
54937;SDS011;52756;52.826;6.214;2023-03-23T03:36:33;4.90;;;2.90;;
54937;SDS011;52756;52.826;6.214;2023-03-23T03:39:04;5.70;;;3.35;;
54937;SDS011;52756;52.826;6.214;2023-03-23T03:41:36;7.43;;;3.58;;
54937;SDS011;52756;52.826;6.214;2023-03-23T03:44:03;5.82;;;3.17;;
54937;SDS011;52756;52.826;6.214;2023-03-23T03:46:30;8.25;;;3.45;;
54937;SDS011;52756;52.826;6.214;2023-03-23T03:48:57;4.97;;;3.22;;
54937;SDS011;52756;52.826;6.214;2023-03-23T03:51:23;5.97;;;3.50;;
54937;SDS011;52756;52.826;6.214;2023-03-23T03:53:51;6.65;;;3.22;;
54937;SDS011;52756;52.826;6.214;2023-03-23T03:56:17;7.45;;;3.50;;
54937;SDS011;52756;52.826;6.214;2023-03-23T03:58:42;6.57;;;3.50;;
54937;SDS011;52756;52.826;6.214;2023-03-23T04:01:09;6.68;;;3.45;;
54937;SDS011;52756;52.826;6.214;2023-03-23T04:03:35;5.78;;;3.22;;
54937;SDS011;52756;52.826;6.214;2023-03-23T04:06:02;6.05;;;3.60;;
54937;SDS011;52756;52.826;6.214;2023-03-23T04:08:28;5.10;;;3.25;;
54937;SDS011;52756;52.826;6.214;2023-03-23T04:10:54;6.18;;;3.42;;
54937;SDS011;52756;52.826;6.214;2023-03-23T04:13:20;8.63;;;3.75;;
54937;SDS011;52756;52.826;6.214;2023-03-23T04:15:46;8.98;;;3.95;;
54937;SDS011;52756;52.826;6.214;2023-03-23T04:18:13;6.13;;;4.00;;
54937;SDS011;52756;52.826;6.214;2023-03-23T04:20:44;7.95;;;4.50;;
54937;SDS011;52756;52.826;6.214;2023-03-23T04:23:15;8.43;;;3.92;;
54937;SDS011;52756;52.826;6.214;2023-03-23T04:28:13;7.30;;;3.53;;
54937;SDS011;52756;52.826;6.214;2023-03-23T04:30:41;7.65;;;3.70;;
54937;SDS011;52756;52.826;6.214;2023-03-23T04:33:08;11.32;;;4.22;;
54937;SDS011;52756;52.826;6.214;2023-03-23T04:35:39;11.13;;;4.25;;
54937;SDS011;52756;52.826;6.214;2023-03-23T04:38:05;5.57;;;2.90;;
54937;SDS011;52756;52.826;6.214;2023-03-23T04:40:32;6.35;;;3.00;;
54937;SDS011;52756;52.826;6.214;2023-03-23T04:43:01;5.22;;;1.45;;
54937;SDS011;52756;52.826;6.214;2023-03-23T04:45:31;4.88;;;1.98;;
54937;SDS011;52756;52.826;6.214;2023-03-23T04:47:58;4.68;;;1.23;;
54937;SDS011;52756;52.826;6.214;2023-03-23T04:50:25;5.55;;;1.30;;
54937;SDS011;52756;52.826;6.214;2023-03-23T04:52:56;4.68;;;1.88;;
54937;SDS011;52756;52.826;6.214;2023-03-23T04:55:23;5.95;;;1.98;;
54937;SDS011;52756;52.826;6.214;2023-03-23T04:57:49;7.45;;;1.92;;
54937;SDS011;52756;52.826;6.214;2023-03-23T05:00:15;9.32;;;2.22;;
54937;SDS011;52756;52.826;6.214;2023-03-23T05:02:42;8.40;;;1.88;;
54937;SDS011;52756;52.826;6.214;2023-03-23T05:05:10;5.88;;;1.98;;
54937;SDS011;52756;52.826;6.214;2023-03-23T05:07:37;6.35;;;1.95;;
54937;SDS011;52756;52.826;6.214;2023-03-23T05:10:04;7.13;;;2.30;;
54937;SDS011;52756;52.826;6.214;2023-03-23T05:12:31;11.35;;;2.22;;
54937;SDS011;52756;52.826;6.214;2023-03-23T05:14:57;8.95;;;3.13;;
54937;SDS011;52756;52.826;6.214;2023-03-23T05:17:22;12.65;;;3.45;;
54937;SDS011;52756;52.826;6.214;2023-03-23T05:19:49;11.32;;;3.08;;
54937;SDS011;52756;52.826;6.214;2023-03-23T05:22:15;13.18;;;3.30;;
54937;SDS011;52756;52.826;6.214;2023-03-23T05:24:41;6.68;;;2.50;;
54937;SDS011;52756;52.826;6.214;2023-03-23T05:27:08;12.27;;;2.30;;
54937;SDS011;52756;52.826;6.214;2023-03-23T05:29:35;10.93;;;2.08;;
54937;SDS011;52756;52.826;6.214;2023-03-23T05:32:02;8.73;;;2.13;;
54937;SDS011;52756;52.826;6.214;2023-03-23T05:34:32;8.95;;;1.85;;
54937;SDS011;52756;52.826;6.214;2023-03-23T05:37:01;10.07;;;2.38;;
54937;SDS011;52756;52.826;6.214;2023-03-23T05:39:28;9.23;;;1.73;;
54937;SDS011;52756;52.826;6.214;2023-03-23T05:41:56;8.93;;;2.42;;
54937;SDS011;52756;52.826;6.214;2023-03-23T05:44:21;8.18;;;2.70;;
54937;SDS011;52756;52.826;6.214;2023-03-23T05:46:47;10.30;;;2.83;;
54937;SDS011;52756;52.826;6.214;2023-03-23T05:49:14;13.18;;;3.20;;
54937;SDS011;52756;52.826;6.214;2023-03-23T05:51:43;10.57;;;2.30;;
54937;SDS011;52756;52.826;6.214;2023-03-23T05:54:11;11.15;;;2.40;;
54937;SDS011;52756;52.826;6.214;2023-03-23T05:56:37;8.85;;;3.33;;
54937;SDS011;52756;52.826;6.214;2023-03-23T05:59:03;8.13;;;2.50;;
54937;SDS011;52756;52.826;6.214;2023-03-23T06:01:29;6.43;;;2.03;;
54937;SDS011;52756;52.826;6.214;2023-03-23T06:03:54;10.90;;;2.42;;
54937;SDS011;52756;52.826;6.214;2023-03-23T06:06:27;9.55;;;2.60;;
54937;SDS011;52756;52.826;6.214;2023-03-23T06:08:54;9.82;;;1.98;;
54937;SDS011;52756;52.826;6.214;2023-03-23T06:11:21;9.70;;;2.40;;
54937;SDS011;52756;52.826;6.214;2023-03-23T06:13:46;12.57;;;2.88;;
54937;SDS011;52756;52.826;6.214;2023-03-23T06:16:13;8.30;;;2.35;;
54937;SDS011;52756;52.826;6.214;2023-03-23T06:18:39;10.55;;;2.50;;
54937;SDS011;52756;52.826;6.214;2023-03-23T06:21:06;12.65;;;2.88;;
54937;SDS011;52756;52.826;6.214;2023-03-23T06:23:33;12.25;;;2.95;;
54937;SDS011;52756;52.826;6.214;2023-03-23T06:26:01;14.77;;;3.78;;
54937;SDS011;52756;52.826;6.214;2023-03-23T06:28:30;15.32;;;5.00;;
54937;SDS011;52756;52.826;6.214;2023-03-23T06:31:00;14.00;;;3.65;;
54937;SDS011;52756;52.826;6.214;2023-03-23T06:33:27;12.38;;;3.90;;
54937;SDS011;52756;52.826;6.214;2023-03-23T06:35:52;16.10;;;4.25;;
54937;SDS011;52756;52.826;6.214;2023-03-23T06:38:19;20.23;;;3.88;;
54937;SDS011;52756;52.826;6.214;2023-03-23T06:40:44;19.38;;;3.75;;
54937;SDS011;52756;52.826;6.214;2023-03-23T06:43:12;16.33;;;3.80;;
54937;SDS011;52756;52.826;6.214;2023-03-23T06:45:38;13.20;;;3.50;;
54937;SDS011;52756;52.826;6.214;2023-03-23T06:48:04;19.10;;;3.92;;
54937;SDS011;52756;52.826;6.214;2023-03-23T06:50:30;14.88;;;3.97;;
54937;SDS011;52756;52.826;6.214;2023-03-23T06:52:56;15.23;;;3.40;;
54937;SDS011;52756;52.826;6.214;2023-03-23T06:55:22;19.02;;;4.07;;
54937;SDS011;52756;52.826;6.214;2023-03-23T06:57:48;16.88;;;3.33;;
54937;SDS011;52756;52.826;6.214;2023-03-23T07:00:14;13.85;;;3.70;;
54937;SDS011;52756;52.826;6.214;2023-03-23T07:02:40;23.20;;;3.83;;
54937;SDS011;52756;52.826;6.214;2023-03-23T07:05:09;15.43;;;4.13;;
54937;SDS011;52756;52.826;6.214;2023-03-23T07:07:39;20.27;;;4.22;;
54937;SDS011;52756;52.826;6.214;2023-03-23T07:10:06;15.63;;;4.35;;
54937;SDS011;52756;52.826;6.214;2023-03-23T07:12:36;21.33;;;4.28;;
54937;SDS011;52756;52.826;6.214;2023-03-23T07:15:03;22.88;;;5.10;;
54937;SDS011;52756;52.826;6.214;2023-03-23T07:17:29;16.10;;;4.18;;
54937;SDS011;52756;52.826;6.214;2023-03-23T07:19:55;15.10;;;3.80;;
54937;SDS011;52756;52.826;6.214;2023-03-23T07:22:21;18.17;;;4.20;;
54937;SDS011;52756;52.826;6.214;2023-03-23T07:24:47;18.63;;;3.30;;
54937;SDS011;52756;52.826;6.214;2023-03-23T07:27:12;11.85;;;3.25;;
54937;SDS011;52756;52.826;6.214;2023-03-23T07:29:38;18.17;;;4.60;;
54937;SDS011;52756;52.826;6.214;2023-03-23T07:32:05;19.67;;;3.88;;
54937;SDS011;52756;52.826;6.214;2023-03-23T07:34:35;21.85;;;4.30;;
54937;SDS011;52756;52.826;6.214;2023-03-23T07:37:02;17.83;;;4.47;;
54937;SDS011;52756;52.826;6.214;2023-03-23T07:39:28;21.90;;;4.97;;
54937;SDS011;52756;52.826;6.214;2023-03-23T07:41:54;19.80;;;3.85;;
54937;SDS011;52756;52.826;6.214;2023-03-23T07:44:20;21.42;;;4.78;;
54937;SDS011;52756;52.826;6.214;2023-03-23T07:46:47;26.27;;;4.85;;
54937;SDS011;52756;52.826;6.214;2023-03-23T07:49:12;18.70;;;4.57;;
54937;SDS011;52756;52.826;6.214;2023-03-23T07:51:38;22.15;;;5.00;;
54937;SDS011;52756;52.826;6.214;2023-03-23T07:54:05;17.65;;;3.78;;
54937;SDS011;52756;52.826;6.214;2023-03-23T07:56:33;24.90;;;5.55;;
54937;SDS011;52756;52.826;6.214;2023-03-23T07:59:00;18.63;;;5.07;;
54937;SDS011;52756;52.826;6.214;2023-03-23T08:01:27;21.27;;;4.63;;
54937;SDS011;52756;52.826;6.214;2023-03-23T08:03:54;20.20;;;4.63;;
54937;SDS011;52756;52.826;6.214;2023-03-23T08:06:22;16.67;;;4.03;;
54937;SDS011;52756;52.826;6.214;2023-03-23T08:08:51;23.83;;;4.78;;
54937;SDS011;52756;52.826;6.214;2023-03-23T08:11:17;21.40;;;4.78;;
54937;SDS011;52756;52.826;6.214;2023-03-23T08:13:44;20.80;;;4.72;;
54937;SDS011;52756;52.826;6.214;2023-03-23T08:16:10;17.13;;;4.03;;
54937;SDS011;52756;52.826;6.214;2023-03-23T08:18:37;21.45;;;5.00;;
54937;SDS011;52756;52.826;6.214;2023-03-23T08:21:04;19.73;;;4.72;;
54937;SDS011;52756;52.826;6.214;2023-03-23T08:23:31;21.67;;;4.78;;
54937;SDS011;52756;52.826;6.214;2023-03-23T08:25:57;24.67;;;4.78;;
54937;SDS011;52756;52.826;6.214;2023-03-23T08:28:24;20.15;;;4.63;;
54937;SDS011;52756;52.826;6.214;2023-03-23T08:30:50;22.30;;;4.47;;
54937;SDS011;52756;52.826;6.214;2023-03-23T08:33:16;19.90;;;3.85;;
54937;SDS011;52756;52.826;6.214;2023-03-23T08:35:42;18.88;;;4.72;;
54937;SDS011;52756;52.826;6.214;2023-03-23T08:38:09;21.95;;;4.63;;
54937;SDS011;52756;52.826;6.214;2023-03-23T08:40:36;19.25;;;4.47;;
54937;SDS011;52756;52.826;6.214;2023-03-23T08:43:02;18.80;;;4.43;;
54937;SDS011;52756;52.826;6.214;2023-03-23T08:45:29;21.25;;;4.43;;
54937;SDS011;52756;52.826;6.214;2023-03-23T08:47:55;23.60;;;5.57;;
54937;SDS011;52756;52.826;6.214;2023-03-23T08:50:26;22.65;;;4.65;;
54937;SDS011;52756;52.826;6.214;2023-03-23T08:52:53;22.33;;;4.82;;
54937;SDS011;52756;52.826;6.214;2023-03-23T08:55:20;22.38;;;5.50;;
54937;SDS011;52756;52.826;6.214;2023-03-23T08:57:47;17.38;;;4.45;;
54937;SDS011;52756;52.826;6.214;2023-03-23T09:00:14;22.85;;;4.70;;
54937;SDS011;52756;52.826;6.214;2023-03-23T09:02:43;21.00;;;5.45;;
54937;SDS011;52756;52.826;6.214;2023-03-23T09:05:11;20.40;;;5.07;;
54937;SDS011;52756;52.826;6.214;2023-03-23T09:07:37;17.85;;;4.57;;
54937;SDS011;52756;52.826;6.214;2023-03-23T09:10:04;22.67;;;4.82;;
54937;SDS011;52756;52.826;6.214;2023-03-23T09:12:31;16.88;;;4.28;;
54937;SDS011;52756;52.826;6.214;2023-03-23T09:14:56;18.70;;;4.13;;
54937;SDS011;52756;52.826;6.214;2023-03-23T09:17:22;20.30;;;4.80;;
54937;SDS011;52756;52.826;6.214;2023-03-23T09:19:48;20.20;;;4.18;;
54937;SDS011;52756;52.826;6.214;2023-03-23T09:22:14;23.88;;;6.05;;
54937;SDS011;52756;52.826;6.214;2023-03-23T09:24:44;19.95;;;4.82;;
54937;SDS011;52756;52.826;6.214;2023-03-23T09:27:11;18.73;;;4.70;;
54937;SDS011;52756;52.826;6.214;2023-03-23T09:29:36;20.67;;;4.93;;
54937;SDS011;52756;52.826;6.214;2023-03-23T09:32:03;24.52;;;4.75;;
54937;SDS011;52756;52.826;6.214;2023-03-23T09:34:29;21.02;;;4.38;;
54937;SDS011;52756;52.826;6.214;2023-03-23T09:36:54;19.63;;;4.78;;
54937;SDS011;52756;52.826;6.214;2023-03-23T09:39:20;21.38;;;5.15;;
54937;SDS011;52756;52.826;6.214;2023-03-23T09:47:01;16.10;;;4.07;;
54937;SDS011;52756;52.826;6.214;2023-03-23T09:49:50;18.58;;;4.65;;
54937;SDS011;52756;52.826;6.214;2023-03-23T09:54:53;16.55;;;3.50;;
54937;SDS011;52756;52.826;6.214;2023-03-23T10:02:34;20.23;;;5.13;;
54937;SDS011;52756;52.826;6.214;2023-03-23T10:08:01;17.25;;;3.55;;
54937;SDS011;52756;52.826;6.214;2023-03-23T10:10:52;15.18;;;3.85;;
54937;SDS011;52756;52.826;6.214;2023-03-23T10:16:07;12.48;;;2.70;;
54937;SDS011;52756;52.826;6.214;2023-03-23T10:18:37;11.63;;;3.10;;
54937;SDS011;52756;52.826;6.214;2023-03-23T10:21:07;14.00;;;3.08;;
54937;SDS011;52756;52.826;6.214;2023-03-23T10:23:41;11.60;;;3.10;;
54937;SDS011;52756;52.826;6.214;2023-03-23T10:26:26;11.63;;;3.03;;
54937;SDS011;52756;52.826;6.214;2023-03-23T10:29:08;11.85;;;3.10;;
54937;SDS011;52756;52.826;6.214;2023-03-23T10:31:41;9.50;;;2.95;;
54937;SDS011;52756;52.826;6.214;2023-03-23T10:34:16;10.88;;;2.40;;
54937;SDS011;52756;52.826;6.214;2023-03-23T10:39:43;10.57;;;3.10;;
54937;SDS011;52756;52.826;6.214;2023-03-23T10:42:34;11.55;;;2.97;;
54937;SDS011;52756;52.826;6.214;2023-03-23T10:48:13;13.73;;;3.53;;
54937;SDS011;52756;52.826;6.214;2023-03-23T10:50:46;9.65;;;2.60;;
54937;SDS011;52756;52.826;6.214;2023-03-23T10:53:33;11.23;;;3.03;;
54937;SDS011;52756;52.826;6.214;2023-03-23T10:56:02;9.18;;;2.65;;
54937;SDS011;52756;52.826;6.214;2023-03-23T10:58:31;11.82;;;3.40;;
54937;SDS011;52756;52.826;6.214;2023-03-23T11:00:59;12.65;;;3.17;;
54937;SDS011;52756;52.826;6.214;2023-03-23T11:06:02;14.70;;;3.47;;
54937;SDS011;52756;52.826;6.214;2023-03-23T11:08:32;16.20;;;3.13;;
54937;SDS011;52756;52.826;6.214;2023-03-23T11:11:16;11.02;;;2.80;;
54937;SDS011;52756;52.826;6.214;2023-03-23T11:13:49;13.68;;;2.95;;
54937;SDS011;52756;52.826;6.214;2023-03-23T11:16:27;10.98;;;2.95;;
54937;SDS011;52756;52.826;6.214;2023-03-23T11:18:53;11.18;;;3.22;;
54937;SDS011;52756;52.826;6.214;2023-03-23T11:21:20;11.35;;;3.10;;
54937;SDS011;52756;52.826;6.214;2023-03-23T11:23:55;10.35;;;3.88;;
54937;SDS011;52756;52.826;6.214;2023-03-23T11:28:57;11.15;;;2.83;;
54937;SDS011;52756;52.826;6.214;2023-03-23T11:31:30;13.57;;;2.97;;
54937;SDS011;52756;52.826;6.214;2023-03-23T11:36:42;15.55;;;3.95;;
54937;SDS011;52756;52.826;6.214;2023-03-23T11:39:33;13.70;;;3.65;;
54937;SDS011;52756;52.826;6.214;2023-03-23T11:42:12;8.50;;;3.00;;
54937;SDS011;52756;52.826;6.214;2023-03-23T11:44:44;9.80;;;2.50;;
54937;SDS011;52756;52.826;6.214;2023-03-23T11:47:25;10.82;;;3.33;;
54937;SDS011;52756;52.826;6.214;2023-03-23T11:50:17;13.05;;;3.53;;
54937;SDS011;52756;52.826;6.214;2023-03-23T11:55:26;11.57;;;3.17;;
54937;SDS011;52756;52.826;6.214;2023-03-23T11:57:55;10.02;;;2.70;;
54937;SDS011;52756;52.826;6.214;2023-03-23T12:00:25;12.60;;;3.67;;
54937;SDS011;52756;52.826;6.214;2023-03-23T12:06:02;12.95;;;3.47;;
54937;SDS011;52756;52.826;6.214;2023-03-23T12:11:19;13.60;;;3.20;;
54937;SDS011;52756;52.826;6.214;2023-03-23T12:14:12;16.02;;;3.85;;
54937;SDS011;52756;52.826;6.214;2023-03-23T12:32:58;11.50;;;2.80;;
54937;SDS011;52756;52.826;6.214;2023-03-23T12:46:42;11.40;;;3.00;;
54937;SDS011;52756;52.826;6.214;2023-03-23T12:49:22;12.93;;;2.90;;
54937;SDS011;52756;52.826;6.214;2023-03-23T12:54:50;14.07;;;2.88;;
54937;SDS011;52756;52.826;6.214;2023-03-23T13:00:16;8.38;;;2.50;;
54937;SDS011;52756;52.826;6.214;2023-03-23T13:05:36;9.45;;;2.83;;
54937;SDS011;52756;52.826;6.214;2023-03-23T13:08:21;17.75;;;3.58;;
54937;SDS011;52756;52.826;6.214;2023-03-23T13:10:55;11.23;;;2.33;;
54937;SDS011;52756;52.826;6.214;2023-03-23T13:13:43;9.60;;;2.50;;
54937;SDS011;52756;52.826;6.214;2023-03-23T13:21:33;11.00;;;2.83;;
54937;SDS011;52756;52.826;6.214;2023-03-23T13:24:12;16.15;;;3.28;;
54937;SDS011;52756;52.826;6.214;2023-03-23T13:26:41;12.35;;;2.33;;
54937;SDS011;52756;52.826;6.214;2023-03-23T13:29:20;11.48;;;2.67;;
54937;SDS011;52756;52.826;6.214;2023-03-23T13:31:49;13.05;;;2.95;;
54937;SDS011;52756;52.826;6.214;2023-03-23T13:34:18;14.57;;;3.22;;
54937;SDS011;52756;52.826;6.214;2023-03-23T13:36:54;9.73;;;2.78;;
54937;SDS011;52756;52.826;6.214;2023-03-23T13:47:47;10.63;;;2.75;;
54937;SDS011;52756;52.826;6.214;2023-03-23T13:50:11;9.63;;;3.05;;
54937;SDS011;52756;52.826;6.214;2023-03-23T14:08:24;12.43;;;3.15;;
54937;SDS011;52756;52.826;6.214;2023-03-23T14:10:56;14.00;;;3.63;;
54937;SDS011;52756;52.826;6.214;2023-03-23T14:16:49;13.02;;;3.80;;
54937;SDS011;52756;52.826;6.214;2023-03-23T14:19:28;12.40;;;3.67;;
54937;SDS011;52756;52.826;6.214;2023-03-23T14:21:56;13.15;;;3.58;;
54937;SDS011;52756;52.826;6.214;2023-03-23T14:24:24;11.15;;;3.10;;
54937;SDS011;52756;52.826;6.214;2023-03-23T14:27:28;13.00;;;3.22;;
54937;SDS011;52756;52.826;6.214;2023-03-23T14:29:58;12.38;;;2.95;;
54937;SDS011;52756;52.826;6.214;2023-03-23T14:32:24;15.23;;;3.17;;
54937;SDS011;52756;52.826;6.214;2023-03-23T14:34:53;15.70;;;3.40;;
54937;SDS011;52756;52.826;6.214;2023-03-23T14:37:20;14.80;;;4.53;;
54937;SDS011;52756;52.826;6.214;2023-03-23T14:39:47;11.95;;;2.83;;
54937;SDS011;52756;52.826;6.214;2023-03-23T14:42:31;11.88;;;3.53;;
54937;SDS011;52756;52.826;6.214;2023-03-23T14:44:59;7.68;;;2.38;;
54937;SDS011;52756;52.826;6.214;2023-03-23T14:49:57;7.95;;;2.72;;
54937;SDS011;52756;52.826;6.214;2023-03-23T14:52:28;9.35;;;2.70;;
54937;SDS011;52756;52.826;6.214;2023-03-23T14:55:10;10.40;;;2.55;;
54937;SDS011;52756;52.826;6.214;2023-03-23T14:57:40;11.05;;;3.15;;
54937;SDS011;52756;52.826;6.214;2023-03-23T15:00:23;11.02;;;2.90;;
54937;SDS011;52756;52.826;6.214;2023-03-23T15:02:57;11.07;;;2.78;;
54937;SDS011;52756;52.826;6.214;2023-03-23T15:05:27;8.82;;;2.42;;
54937;SDS011;52756;52.826;6.214;2023-03-23T15:08:00;12.52;;;2.70;;
54937;SDS011;52756;52.826;6.214;2023-03-23T15:13:27;11.27;;;3.17;;
54937;SDS011;52756;52.826;6.214;2023-03-23T15:16:00;11.90;;;3.00;;
54937;SDS011;52756;52.826;6.214;2023-03-23T15:18:37;11.77;;;2.95;;
54937;SDS011;52756;52.826;6.214;2023-03-23T15:21:09;11.25;;;2.53;;
54937;SDS011;52756;52.826;6.214;2023-03-23T15:23:45;14.23;;;3.08;;
54937;SDS011;52756;52.826;6.214;2023-03-23T15:26:25;15.27;;;2.92;;
54937;SDS011;52756;52.826;6.214;2023-03-23T15:32:03;8.30;;;2.20;;
54937;SDS011;52756;52.826;6.214;2023-03-23T15:34:31;11.40;;;3.15;;
54937;SDS011;52756;52.826;6.214;2023-03-23T15:40:13;11.38;;;2.60;;
54937;SDS011;52756;52.826;6.214;2023-03-23T15:42:45;12.93;;;4.28;;
54937;SDS011;52756;52.826;6.214;2023-03-23T15:50:12;11.05;;;3.17;;
54937;SDS011;52756;52.826;6.214;2023-03-23T15:52:51;10.70;;;2.70;;
54937;SDS011;52756;52.826;6.214;2023-03-23T15:55:21;14.43;;;3.25;;
54937;SDS011;52756;52.826;6.214;2023-03-23T15:57:50;15.90;;;3.63;;
54937;SDS011;52756;52.826;6.214;2023-03-23T16:00:17;17.13;;;4.50;;
54937;SDS011;52756;52.826;6.214;2023-03-23T16:02:48;15.45;;;3.35;;
54937;SDS011;52756;52.826;6.214;2023-03-23T16:05:17;11.20;;;2.60;;
54937;SDS011;52756;52.826;6.214;2023-03-23T16:07:43;11.60;;;3.08;;
54937;SDS011;52756;52.826;6.214;2023-03-23T16:10:18;10.70;;;2.78;;
54937;SDS011;52756;52.826;6.214;2023-03-23T16:12:46;9.15;;;2.90;;
54937;SDS011;52756;52.826;6.214;2023-03-23T16:15:12;10.35;;;2.50;;
54937;SDS011;52756;52.826;6.214;2023-03-23T16:17:39;12.35;;;2.80;;
54937;SDS011;52756;52.826;6.214;2023-03-23T16:20:16;9.68;;;2.85;;
54937;SDS011;52756;52.826;6.214;2023-03-23T16:22:44;9.15;;;2.85;;
54937;SDS011;52756;52.826;6.214;2023-03-23T16:25:11;9.60;;;2.70;;
54937;SDS011;52756;52.826;6.214;2023-03-23T16:27:38;13.52;;;3.28;;
54937;SDS011;52756;52.826;6.214;2023-03-23T16:32:36;13.50;;;3.72;;
54937;SDS011;52756;52.826;6.214;2023-03-23T16:35:02;12.02;;;2.80;;
54937;SDS011;52756;52.826;6.214;2023-03-23T16:37:28;9.90;;;2.72;;
54937;SDS011;52756;52.826;6.214;2023-03-23T16:39:57;9.80;;;3.08;;
54937;SDS011;52756;52.826;6.214;2023-03-23T16:42:23;12.18;;;2.60;;
54937;SDS011;52756;52.826;6.214;2023-03-23T16:44:48;7.65;;;2.35;;
54937;SDS011;52756;52.826;6.214;2023-03-23T16:47:15;15.43;;;3.38;;
54937;SDS011;52756;52.826;6.214;2023-03-23T16:49:43;12.75;;;3.30;;
54937;SDS011;52756;52.826;6.214;2023-03-23T16:52:09;10.13;;;2.67;;
54937;SDS011;52756;52.826;6.214;2023-03-23T16:54:35;7.35;;;3.00;;
54937;SDS011;52756;52.826;6.214;2023-03-23T16:57:00;7.57;;;2.42;;
54937;SDS011;52756;52.826;6.214;2023-03-23T16:59:27;11.80;;;3.00;;
54937;SDS011;52756;52.826;6.214;2023-03-23T17:01:53;8.70;;;3.83;;
54937;SDS011;52756;52.826;6.214;2023-03-23T17:04:18;10.82;;;3.17;;
54937;SDS011;52756;52.826;6.214;2023-03-23T17:06:44;10.90;;;2.47;;
54937;SDS011;52756;52.826;6.214;2023-03-23T17:09:10;8.98;;;2.58;;
54937;SDS011;52756;52.826;6.214;2023-03-23T17:11:36;7.20;;;1.92;;
54937;SDS011;52756;52.826;6.214;2023-03-23T17:14:02;6.70;;;1.88;;
54937;SDS011;52756;52.826;6.214;2023-03-23T17:16:28;3.95;;;1.60;;
54937;SDS011;52756;52.826;6.214;2023-03-23T17:18:53;7.75;;;1.65;;
54937;SDS011;52756;52.826;6.214;2023-03-23T17:21:19;7.88;;;2.00;;
54937;SDS011;52756;52.826;6.214;2023-03-23T17:23:49;7.78;;;2.00;;
54937;SDS011;52756;52.826;6.214;2023-03-23T17:26:15;5.32;;;1.73;;
54937;SDS011;52756;52.826;6.214;2023-03-23T17:28:41;5.95;;;1.85;;
54937;SDS011;52756;52.826;6.214;2023-03-23T17:31:07;3.92;;;1.60;;
54937;SDS011;52756;52.826;6.214;2023-03-23T17:33:32;7.93;;;2.20;;
54937;SDS011;52756;52.826;6.214;2023-03-23T17:35:58;7.05;;;1.90;;
54937;SDS011;52756;52.826;6.214;2023-03-23T17:38:24;5.80;;;1.75;;
54937;SDS011;52756;52.826;6.214;2023-03-23T17:41:00;5.78;;;1.65;;